sensor_id;sensor_type;location;lat;lon;timestamp;pressure;altitude;pressure_sealevel;temperature;humidity
18678;BME280;9469;51.114;13.914;2024-01-07T00:01:54;98570.56;;;-0.62;100.00
18678;BME280;9469;51.114;13.914;2024-01-07T00:06:59;98585.34;;;-0.68;100.00
18678;BME280;9469;51.114;13.914;2024-01-07T00:12:08;98579.72;;;-0.48;100.00
18678;BME280;9469;51.114;13.914;2024-01-07T00:17:13;98586.88;;;-0.55;100.00
18678;BME280;9469;51.114;13.914;2024-01-07T00:22:19;98589.41;;;-0.60;100.00
18678;BME280;9469;51.114;13.914;2024-01-07T00:27:27;98593.44;;;-0.41;100.00
18678;BME280;9469;51.114;13.914;2024-01-07T00:32:32;98596.34;;;-0.54;100.00
18678;BME280;9469;51.114;13.914;2024-01-07T00:37:38;98599.72;;;-0.65;100.00
18678;BME280;9469;51.114;13.914;2024-01-07T00:42:47;98599.41;;;-0.69;100.00
18678;BME280;9469;51.114;13.914;2024-01-07T00:47:53;98609.06;;;-0.81;100.00
18678;BME280;9469;51.114;13.914;2024-01-07T00:52:59;98610.13;;;-0.82;100.00
18678;BME280;9469;51.114;13.914;2024-01-07T00:58:07;98614.78;;;-0.84;100.00
18678;BME280;9469;51.114;13.914;2024-01-07T01:03:15;98621.81;;;-0.85;100.00
18678;BME280;9469;51.114;13.914;2024-01-07T01:08:20;98622.38;;;-0.83;100.00
18678;BME280;9469;51.114;13.914;2024-01-07T01:13:28;98626.34;;;-0.68;100.00
18678;BME280;9469;51.114;13.914;2024-01-07T01:18:33;98627.72;;;-0.89;100.00
18678;BME280;9469;51.114;13.914;2024-01-07T01:23:38;98635.78;;;-0.91;100.00
18678;BME280;9469;51.114;13.914;2024-01-07T01:28:46;98647.69;;;-1.06;100.00
18678;BME280;9469;51.114;13.914;2024-01-07T01:33:51;98647.00;;;-1.02;100.00
18678;BME280;9469;51.114;13.914;2024-01-07T01:38:57;98656.75;;;-0.86;100.00
18678;BME280;9469;51.114;13.914;2024-01-07T01:44:06;98656.19;;;-0.99;100.00
18678;BME280;9469;51.114;13.914;2024-01-07T01:49:11;98659.16;;;-0.96;100.00
18678;BME280;9469;51.114;13.914;2024-01-07T01:54:17;98657.91;;;-1.05;100.00
18678;BME280;9469;51.114;13.914;2024-01-07T01:59:25;98664.63;;;-1.09;100.00
18678;BME280;9469;51.114;13.914;2024-01-07T02:04:30;98668.94;;;-0.91;100.00
18678;BME280;9469;51.114;13.914;2024-01-07T02:09:36;98669.50;;;-1.01;100.00
18678;BME280;9469;51.114;13.914;2024-01-07T02:14:44;98675.97;;;-0.92;100.00
18678;BME280;9469;51.114;13.914;2024-01-07T02:19:49;98691.88;;;-0.82;100.00
18678;BME280;9469;51.114;13.914;2024-01-07T02:24:57;98688.84;;;-1.20;100.00
18678;BME280;9469;51.114;13.914;2024-01-07T02:30:04;98690.91;;;-1.22;100.00
18678;BME280;9469;51.114;13.914;2024-01-07T02:35:09;98689.56;;;-1.13;100.00
18678;BME280;9469;51.114;13.914;2024-01-07T02:40:20;98699.31;;;-1.20;100.00
18678;BME280;9469;51.114;13.914;2024-01-07T02:45:25;98707.63;;;-1.11;100.00
18678;BME280;9469;51.114;13.914;2024-01-07T02:50:31;98715.88;;;-1.14;100.00
18678;BME280;9469;51.114;13.914;2024-01-07T02:55:41;98712.59;;;-1.10;100.00
18678;BME280;9469;51.114;13.914;2024-01-07T03:00:46;98714.75;;;-1.18;100.00
18678;BME280;9469;51.114;13.914;2024-01-07T03:05:52;98707.50;;;-1.16;100.00
18678;BME280;9469;51.114;13.914;2024-01-07T03:11:04;98711.00;;;-1.11;100.00
18678;BME280;9469;51.114;13.914;2024-01-07T03:16:19;98715.56;;;-1.18;100.00
18678;BME280;9469;51.114;13.914;2024-01-07T03:21:24;98719.63;;;-1.33;100.00
18678;BME280;9469;51.114;13.914;2024-01-07T03:26:32;98715.66;;;-1.13;100.00
18678;BME280;9469;51.114;13.914;2024-01-07T03:31:38;98711.13;;;-1.29;100.00
18678;BME280;9469;51.114;13.914;2024-01-07T03:36:43;98702.13;;;-1.33;100.00
18678;BME280;9469;51.114;13.914;2024-01-07T03:41:54;98724.84;;;-1.22;100.00
18678;BME280;9469;51.114;13.914;2024-01-07T03:46:59;98715.53;;;-1.29;100.00
18678;BME280;9469;51.114;13.914;2024-01-07T03:52:06;98717.00;;;-1.22;100.00
18678;BME280;9469;51.114;13.914;2024-01-07T03:57:13;98730.25;;;-1.35;100.00
18678;BME280;9469;51.114;13.914;2024-01-07T04:02:19;98735.81;;;-1.43;100.00
18678;BME280;9469;51.114;13.914;2024-01-07T04:07:24;98745.34;;;-1.37;100.00
18678;BME280;9469;51.114;13.914;2024-01-07T04:12:32;98747.03;;;-1.42;100.00
18678;BME280;9469;51.114;13.914;2024-01-07T04:17:40;98741.97;;;-1.26;100.00
18678;BME280;9469;51.114;13.914;2024-01-07T04:22:45;98753.72;;;-1.35;100.00
18678;BME280;9469;51.114;13.914;2024-01-07T04:27:53;98762.22;;;-1.39;100.00
18678;BME280;9469;51.114;13.914;2024-01-07T04:32:58;98760.22;;;-1.26;100.00
18678;BME280;9469;51.114;13.914;2024-01-07T04:38:03;98764.63;;;-1.38;100.00
18678;BME280;9469;51.114;13.914;2024-01-07T04:43:12;98759.13;;;-1.48;100.00
18678;BME280;9469;51.114;13.914;2024-01-07T04:48:17;98783.75;;;-1.44;100.00
18678;BME280;9469;51.114;13.914;2024-01-07T04:53:22;98780.19;;;-1.31;100.00
18678;BME280;9469;51.114;13.914;2024-01-07T04:58:30;98783.91;;;-1.39;100.00
18678;BME280;9469;51.114;13.914;2024-01-07T05:03:35;98788.63;;;-1.18;100.00
18678;BME280;9469;51.114;13.914;2024-01-07T05:08:42;98793.91;;;-1.36;100.00
18678;BME280;9469;51.114;13.914;2024-01-07T05:13:50;98802.97;;;-1.38;100.00
18678;BME280;9469;51.114;13.914;2024-01-07T05:18:56;98807.34;;;-1.51;100.00
18678;BME280;9469;51.114;13.914;2024-01-07T05:24:01;98825.53;;;-1.62;100.00
18678;BME280;9469;51.114;13.914;2024-01-07T05:29:09;98817.63;;;-1.74;100.00
18678;BME280;9469;51.114;13.914;2024-01-07T05:34:14;98816.25;;;-1.76;100.00
18678;BME280;9469;51.114;13.914;2024-01-07T05:39:20;98819.59;;;-1.69;100.00
18678;BME280;9469;51.114;13.914;2024-01-07T05:44:27;98819.59;;;-1.69;100.00
18678;BME280;9469;51.114;13.914;2024-01-07T05:49:32;98827.88;;;-1.72;100.00
18678;BME280;9469;51.114;13.914;2024-01-07T05:54:38;98831.19;;;-1.65;100.00
18678;BME280;9469;51.114;13.914;2024-01-07T05:59:46;98839.44;;;-1.68;100.00
18678;BME280;9469;51.114;13.914;2024-01-07T06:04:55;98850.88;;;-1.69;100.00
18678;BME280;9469;51.114;13.914;2024-01-07T06:10:01;98858.94;;;-1.89;100.00
18678;BME280;9469;51.114;13.914;2024-01-07T06:15:09;98858.13;;;-1.89;100.00
18678;BME280;9469;51.114;13.914;2024-01-07T06:20:15;98865.66;;;-1.99;100.00
18678;BME280;9469;51.114;13.914;2024-01-07T06:25:20;98869.59;;;-1.90;100.00
18678;BME280;9469;51.114;13.914;2024-01-07T06:30:31;98878.13;;;-2.01;100.00
18678;BME280;9469;51.114;13.914;2024-01-07T06:35:36;98886.66;;;-2.19;100.00
18678;BME280;9469;51.114;13.914;2024-01-07T06:40:41;98909.53;;;-2.21;100.00
18678;BME280;9469;51.114;13.914;2024-01-07T06:45:49;98904.66;;;-2.11;100.00
18678;BME280;9469;51.114;13.914;2024-01-07T06:50:55;98909.34;;;-2.20;100.00
18678;BME280;9469;51.114;13.914;2024-01-07T06:56:00;98910.69;;;-2.10;100.00
18678;BME280;9469;51.114;13.914;2024-01-07T07:01:09;98913.00;;;-2.27;100.00
18678;BME280;9469;51.114;13.914;2024-01-07T07:06:16;98913.38;;;-2.24;100.00
18678;BME280;9469;51.114;13.914;2024-01-07T07:11:21;98921.47;;;-2.07;100.00
18678;BME280;9469;51.114;13.914;2024-01-07T07:16:29;98929.50;;;-2.08;100.00
18678;BME280;9469;51.114;13.914;2024-01-07T07:21:34;98928.63;;;-2.02;100.00
18678;BME280;9469;51.114;13.914;2024-01-07T07:26:39;98941.03;;;-2.23;100.00
18678;BME280;9469;51.114;13.914;2024-01-07T07:31:47;98945.38;;;-2.17;100.00
18678;BME280;9469;51.114;13.914;2024-01-07T07:36:52;98953.59;;;-2.13;100.00
18678;BME280;9469;51.114;13.914;2024-01-07T07:41:59;98956.28;;;-2.26;100.00
18678;BME280;9469;51.114;13.914;2024-01-07T07:47:08;98968.53;;;-2.27;100.00
18678;BME280;9469;51.114;13.914;2024-01-07T07:52:14;98975.63;;;-2.40;100.00
18678;BME280;9469;51.114;13.914;2024-01-07T07:57:24;98992.22;;;-2.35;100.00
18678;BME280;9469;51.114;13.914;2024-01-07T08:02:36;98995.84;;;-2.36;100.00
18678;BME280;9469;51.114;13.914;2024-01-07T08:07:41;99001.56;;;-2.52;100.00
18678;BME280;9469;51.114;13.914;2024-01-07T08:12:47;99008.94;;;-2.49;100.00
18678;BME280;9469;51.114;13.914;2024-01-07T08:17:55;99006.63;;;-2.32;100.00
18678;BME280;9469;51.114;13.914;2024-01-07T08:23:00;99007.53;;;-2.45;100.00
18678;BME280;9469;51.114;13.914;2024-01-07T08:28:06;99020.66;;;-2.27;100.00
18678;BME280;9469;51.114;13.914;2024-01-07T08:33:16;99023.56;;;-2.17;100.00
18678;BME280;9469;51.114;13.914;2024-01-07T08:38:21;99024.69;;;-1.99;100.00
18678;BME280;9469;51.114;13.914;2024-01-07T08:43:27;99033.13;;;-2.04;99.27
18678;BME280;9469;51.114;13.914;2024-01-07T08:48:35;99038.53;;;-2.05;99.37
18678;BME280;9469;51.114;13.914;2024-01-07T08:53:41;99040.06;;;-2.23;99.22
18678;BME280;9469;51.114;13.914;2024-01-07T08:58:46;99043.75;;;-2.37;99.62
18678;BME280;9469;51.114;13.914;2024-01-07T09:03:54;99049.97;;;-2.38;99.04
18678;BME280;9469;51.114;13.914;2024-01-07T09:08:59;99055.16;;;-2.31;99.35
18678;BME280;9469;51.114;13.914;2024-01-07T09:14:10;99061.34;;;-2.32;99.61
18678;BME280;9469;51.114;13.914;2024-01-07T09:19:19;99072.06;;;-2.53;99.58
18678;BME280;9469;51.114;13.914;2024-01-07T09:24:25;99057.59;;;-2.43;98.58
18678;BME280;9469;51.114;13.914;2024-01-07T09:29:30;99077.88;;;-2.51;99.03
18678;BME280;9469;51.114;13.914;2024-01-07T09:34:38;99081.84;;;-2.42;98.71
18678;BME280;9469;51.114;13.914;2024-01-07T09:39:44;99068.78;;;-2.36;99.11
18678;BME280;9469;51.114;13.914;2024-01-07T09:44:50;99072.16;;;-2.29;98.54
18678;BME280;9469;51.114;13.914;2024-01-07T09:49:58;99073.47;;;-2.13;98.61
18678;BME280;9469;51.114;13.914;2024-01-07T09:55:08;99081.03;;;-2.05;98.11
18678;BME280;9469;51.114;13.914;2024-01-07T10:00:14;99082.50;;;-2.60;98.45
18678;BME280;9469;51.114;13.914;2024-01-07T10:05:22;99083.22;;;-2.40;98.36
18678;BME280;9469;51.114;13.914;2024-01-07T10:10:28;99084.53;;;-2.62;98.00
18678;BME280;9469;51.114;13.914;2024-01-07T10:15:34;99091.75;;;-2.64;97.41
18678;BME280;9469;51.114;13.914;2024-01-07T10:20:43;99100.38;;;-2.70;96.63
18678;BME280;9469;51.114;13.914;2024-01-07T10:25:51;99107.59;;;-2.65;95.97
18678;BME280;9469;51.114;13.914;2024-01-07T10:31:04;99099.22;;;-2.74;95.95
18678;BME280;9469;51.114;13.914;2024-01-07T10:36:12;99105.41;;;-2.75;95.11
18678;BME280;9469;51.114;13.914;2024-01-07T10:41:18;99107.81;;;-2.67;95.01
18678;BME280;9469;51.114;13.914;2024-01-07T10:46:24;99112.72;;;-2.46;94.00
18678;BME280;9469;51.114;13.914;2024-01-07T10:51:34;99111.19;;;-2.66;92.39
18678;BME280;9469;51.114;13.914;2024-01-07T10:56:45;99093.50;;;-2.45;91.25
18678;BME280;9469;51.114;13.914;2024-01-07T11:01:51;99106.91;;;-2.48;90.62
18678;BME280;9469;51.114;13.914;2024-01-07T11:07:13;99100.09;;;-2.42;90.08
18678;BME280;9469;51.114;13.914;2024-01-07T11:12:23;99097.34;;;-2.54;88.89
18678;BME280;9469;51.114;13.914;2024-01-07T11:17:41;99105.72;;;-2.45;88.59
18678;BME280;9469;51.114;13.914;2024-01-07T11:22:52;99110.47;;;-2.36;87.78
18678;BME280;9469;51.114;13.914;2024-01-07T11:28:43;99123.16;;;-2.52;88.41
18678;BME280;9469;51.114;13.914;2024-01-07T11:33:49;99123.50;;;-2.36;87.61
18678;BME280;9469;51.114;13.914;2024-01-07T11:39:00;99122.09;;;-2.32;87.63
18678;BME280;9469;51.114;13.914;2024-01-07T11:44:07;99117.88;;;-2.33;87.53
18678;BME280;9469;51.114;13.914;2024-01-07T11:49:14;99120.84;;;-2.23;87.60
18678;BME280;9469;51.114;13.914;2024-01-07T11:54:26;99126.13;;;-2.36;88.73
18678;BME280;9469;51.114;13.914;2024-01-07T11:59:34;99128.50;;;-2.34;88.64
18678;BME280;9469;51.114;13.914;2024-01-07T12:04:45;99124.53;;;-2.43;88.42
18678;BME280;9469;51.114;13.914;2024-01-07T12:09:57;99134.94;;;-2.43;88.13
18678;BME280;9469;51.114;13.914;2024-01-07T12:15:04;99129.66;;;-2.24;88.05
18678;BME280;9469;51.114;13.914;2024-01-07T12:20:10;99130.13;;;-2.40;88.52
18678;BME280;9469;51.114;13.914;2024-01-07T12:25:25;99134.16;;;-2.44;89.21
18678;BME280;9469;51.114;13.914;2024-01-07T12:30:30;99134.50;;;-2.27;89.63
18678;BME280;9469;51.114;13.914;2024-01-07T12:35:36;99155.78;;;-2.37;89.72
18678;BME280;9469;51.114;13.914;2024-01-07T12:40:43;99151.00;;;-2.53;89.37
18678;BME280;9469;51.114;13.914;2024-01-07T12:45:49;99163.13;;;-2.21;88.45
18678;BME280;9469;51.114;13.914;2024-01-07T12:50:55;99162.16;;;-2.33;88.13
18678;BME280;9469;51.114;13.914;2024-01-07T12:56:04;99169.00;;;-2.38;88.50
18678;BME280;9469;51.114;13.914;2024-01-07T13:01:09;99177.41;;;-2.30;89.46
18678;BME280;9469;51.114;13.914;2024-01-07T13:06:16;99180.75;;;-2.16;90.04
18678;BME280;9469;51.114;13.914;2024-01-07T13:11:24;99183.38;;;-2.23;89.89
18678;BME280;9469;51.114;13.914;2024-01-07T13:16:29;99181.91;;;-2.05;89.18
18678;BME280;9469;51.114;13.914;2024-01-07T13:21:34;99178.41;;;-1.86;87.36
18678;BME280;9469;51.114;13.914;2024-01-07T13:26:46;99184.72;;;-1.69;87.74
18678;BME280;9469;51.114;13.914;2024-01-07T13:31:51;99179.66;;;-1.95;86.58
18678;BME280;9469;51.114;13.914;2024-01-07T13:36:56;99190.16;;;-2.08;87.21
18678;BME280;9469;51.114;13.914;2024-01-07T13:42:04;99188.91;;;-1.99;87.08
18678;BME280;9469;51.114;13.914;2024-01-07T13:47:09;99192.41;;;-1.74;87.30
18678;BME280;9469;51.114;13.914;2024-01-07T13:52:18;99203.41;;;-2.17;86.33
18678;BME280;9469;51.114;13.914;2024-01-07T13:57:26;99206.03;;;-2.23;87.28
18678;BME280;9469;51.114;13.914;2024-01-07T14:02:33;99215.88;;;-2.25;87.78
18678;BME280;9469;51.114;13.914;2024-01-07T14:07:39;99216.47;;;-2.30;88.42
18678;BME280;9469;51.114;13.914;2024-01-07T14:12:48;99223.56;;;-1.99;88.64
18678;BME280;9469;51.114;13.914;2024-01-07T14:17:53;99219.16;;;-1.98;88.06
18678;BME280;9469;51.114;13.914;2024-01-07T14:22:59;99231.44;;;-2.05;88.93
18678;BME280;9469;51.114;13.914;2024-01-07T14:28:06;99215.38;;;-2.02;88.41
18678;BME280;9469;51.114;13.914;2024-01-07T14:33:12;99225.91;;;-2.29;88.61
18678;BME280;9469;51.114;13.914;2024-01-07T14:38:17;99226.22;;;-2.05;88.61
18678;BME280;9469;51.114;13.914;2024-01-07T14:43:25;99238.34;;;-2.37;89.37
18678;BME280;9469;51.114;13.914;2024-01-07T14:48:32;99249.53;;;-2.30;89.47
18678;BME280;9469;51.114;13.914;2024-01-07T14:53:38;99246.91;;;-2.24;89.55
18678;BME280;9469;51.114;13.914;2024-01-07T14:58:46;99247.13;;;-2.19;89.72
18678;BME280;9469;51.114;13.914;2024-01-07T15:03:52;99241.53;;;-2.35;89.53
18678;BME280;9469;51.114;13.914;2024-01-07T15:08:58;99236.03;;;-2.01;88.10
18678;BME280;9469;51.114;13.914;2024-01-07T15:14:06;99238.75;;;-2.34;89.13
18678;BME280;9469;51.114;13.914;2024-01-07T15:19:11;99246.13;;;-2.17;89.89
18678;BME280;9469;51.114;13.914;2024-01-07T15:24:17;99252.72;;;-2.08;90.69
18678;BME280;9469;51.114;13.914;2024-01-07T15:29:25;99256.50;;;-2.04;90.39
18678;BME280;9469;51.114;13.914;2024-01-07T15:34:30;99258.28;;;-1.98;91.72
18678;BME280;9469;51.114;13.914;2024-01-07T15:39:35;99266.53;;;-2.08;90.64
18678;BME280;9469;51.114;13.914;2024-01-07T15:44:43;99270.91;;;-1.95;91.46
18678;BME280;9469;51.114;13.914;2024-01-07T15:49:48;99272.59;;;-2.27;92.18
18678;BME280;9469;51.114;13.914;2024-01-07T15:54:54;99279.00;;;-2.23;92.55
18678;BME280;9469;51.114;13.914;2024-01-07T16:00:05;99283.84;;;-2.33;93.02
18678;BME280;9469;51.114;13.914;2024-01-07T16:05:10;99290.84;;;-2.27;93.10
18678;BME280;9469;51.114;13.914;2024-01-07T16:10:15;99298.06;;;-2.36;93.74
18678;BME280;9469;51.114;13.914;2024-01-07T16:15:23;99294.88;;;-2.38;94.25
18678;BME280;9469;51.114;13.914;2024-01-07T16:20:30;99295.81;;;-2.12;93.99
18678;BME280;9469;51.114;13.914;2024-01-07T16:25:36;99308.88;;;-2.32;93.50
18678;BME280;9469;51.114;13.914;2024-01-07T16:30:44;99307.47;;;-2.35;94.47
18678;BME280;9469;51.114;13.914;2024-01-07T16:35:52;99317.88;;;-2.28;94.93
18678;BME280;9469;51.114;13.914;2024-01-07T16:40:57;99320.13;;;-2.32;95.11
18678;BME280;9469;51.114;13.914;2024-01-07T16:46:05;99328.94;;;-2.46;95.45
18678;BME280;9469;51.114;13.914;2024-01-07T16:51:10;99330.94;;;-2.35;95.80
18678;BME280;9469;51.114;13.914;2024-01-07T16:56:16;99330.34;;;-2.50;96.34
18678;BME280;9469;51.114;13.914;2024-01-07T17:01:26;99337.72;;;-2.14;96.25
18678;BME280;9469;51.114;13.914;2024-01-07T17:06:32;99344.38;;;-2.25;95.41
18678;BME280;9469;51.114;13.914;2024-01-07T17:11:39;99341.34;;;-2.35;96.38
18678;BME280;9469;51.114;13.914;2024-01-07T17:16:47;99332.75;;;-2.29;95.33
18678;BME280;9469;51.114;13.914;2024-01-07T17:21:52;99333.31;;;-2.07;93.88
18678;BME280;9469;51.114;13.914;2024-01-07T17:26:59;99341.16;;;-2.46;96.28
18678;BME280;9469;51.114;13.914;2024-01-07T17:32:10;99341.78;;;-2.38;96.61
18678;BME280;9469;51.114;13.914;2024-01-07T17:37:18;99345.38;;;-2.45;96.22
18678;BME280;9469;51.114;13.914;2024-01-07T17:42:24;99347.78;;;-2.24;96.25
18678;BME280;9469;51.114;13.914;2024-01-07T17:47:32;99357.78;;;-2.28;96.37
18678;BME280;9469;51.114;13.914;2024-01-07T17:52:38;99359.81;;;-2.36;95.87
18678;BME280;9469;51.114;13.914;2024-01-07T17:57:43;99364.63;;;-2.33;94.77
18678;BME280;9469;51.114;13.914;2024-01-07T18:02:51;99370.03;;;-2.48;94.27
18678;BME280;9469;51.114;13.914;2024-01-07T18:07:56;99369.81;;;-2.53;94.89
18678;BME280;9469;51.114;13.914;2024-01-07T18:13:02;99368.41;;;-2.62;94.15
18678;BME280;9469;51.114;13.914;2024-01-07T18:18:10;99362.63;;;-2.38;93.52
18678;BME280;9469;51.114;13.914;2024-01-07T18:23:15;99368.81;;;-2.06;93.40
18678;BME280;9469;51.114;13.914;2024-01-07T18:28:21;99378.84;;;-2.23;94.11
18678;BME280;9469;51.114;13.914;2024-01-07T18:33:29;99370.44;;;-2.25;94.43
18678;BME280;9469;51.114;13.914;2024-01-07T18:38:36;99381.84;;;-2.26;94.83
18678;BME280;9469;51.114;13.914;2024-01-07T18:43:43;99381.81;;;-2.12;95.13
18678;BME280;9469;51.114;13.914;2024-01-07T18:48:52;99394.09;;;-2.20;95.34
18678;BME280;9469;51.114;13.914;2024-01-07T18:53:57;99407.69;;;-2.37;95.82
18678;BME280;9469;51.114;13.914;2024-01-07T18:59:02;99395.25;;;-2.35;96.08
18678;BME280;9469;51.114;13.914;2024-01-07T19:04:10;99391.66;;;-2.47;96.23
18678;BME280;9469;51.114;13.914;2024-01-07T19:09:16;99400.28;;;-2.34;96.11
18678;BME280;9469;51.114;13.914;2024-01-07T19:14:21;99399.06;;;-2.05;95.89
18678;BME280;9469;51.114;13.914;2024-01-07T19:19:29;99406.69;;;-2.43;95.84
18678;BME280;9469;51.114;13.914;2024-01-07T19:24:36;99402.47;;;-2.37;96.63
18678;BME280;9469;51.114;13.914;2024-01-07T19:29:41;99411.91;;;-2.36;97.15
18678;BME280;9469;51.114;13.914;2024-01-07T19:34:50;99414.31;;;-2.41;97.60
18678;BME280;9469;51.114;13.914;2024-01-07T19:39:57;99428.72;;;-2.65;97.63
18678;BME280;9469;51.114;13.914;2024-01-07T19:45:06;99425.31;;;-2.46;97.38
18678;BME280;9469;51.114;13.914;2024-01-07T19:50:16;99433.34;;;-2.54;96.30
18678;BME280;9469;51.114;13.914;2024-01-07T19:55:22;99433.50;;;-2.62;95.41
18678;BME280;9469;51.114;13.914;2024-01-07T20:00:27;99448.31;;;-2.69;96.08
18678;BME280;9469;51.114;13.914;2024-01-07T20:05:36;99446.50;;;-2.75;96.12
18678;BME280;9469;51.114;13.914;2024-01-07T20:10:42;99445.94;;;-2.64;96.28
18678;BME280;9469;51.114;13.914;2024-01-07T20:15:48;99453.94;;;-2.72;96.38
18678;BME280;9469;51.114;13.914;2024-01-07T20:20:58;99460.56;;;-2.63;96.36
18678;BME280;9469;51.114;13.914;2024-01-07T20:26:03;99458.72;;;-2.82;96.58
18678;BME280;9469;51.114;13.914;2024-01-07T20:31:10;99468.72;;;-2.85;96.06
18678;BME280;9469;51.114;13.914;2024-01-07T20:36:19;99474.69;;;-2.92;95.48
18678;BME280;9469;51.114;13.914;2024-01-07T20:41:25;99464.66;;;-3.01;95.86
18678;BME280;9469;51.114;13.914;2024-01-07T20:46:30;99466.25;;;-3.00;95.97
18678;BME280;9469;51.114;13.914;2024-01-07T20:51:39;99474.56;;;-3.24;97.40
18678;BME280;9469;51.114;13.914;2024-01-07T20:56:44;99476.56;;;-3.26;97.62
18678;BME280;9469;51.114;13.914;2024-01-07T21:01:50;99478.13;;;-3.32;97.93
18678;BME280;9469;51.114;13.914;2024-01-07T21:06:58;99467.44;;;-3.03;98.80
18678;BME280;9469;51.114;13.914;2024-01-07T21:12:04;99477.81;;;-3.09;98.13
18678;BME280;9469;51.114;13.914;2024-01-07T21:17:10;99478.75;;;-3.23;97.91
18678;BME280;9469;51.114;13.914;2024-01-07T21:22:17;99475.22;;;-3.09;98.60
18678;BME280;9469;51.114;13.914;2024-01-07T21:27:23;99482.94;;;-3.29;99.17
18678;BME280;9469;51.114;13.914;2024-01-07T21:32:28;99485.00;;;-3.18;99.08
18678;BME280;9469;51.114;13.914;2024-01-07T21:37:37;99483.47;;;-3.06;98.27
18678;BME280;9469;51.114;13.914;2024-01-07T21:42:42;99483.06;;;-3.03;97.82
18678;BME280;9469;51.114;13.914;2024-01-07T21:47:47;99488.16;;;-3.29;97.66
18678;BME280;9469;51.114;13.914;2024-01-07T21:52:55;99492.91;;;-3.32;97.12
18678;BME280;9469;51.114;13.914;2024-01-07T21:58:00;99497.03;;;-3.17;96.69
18678;BME280;9469;51.114;13.914;2024-01-07T22:03:05;99496.97;;;-3.23;94.17
18678;BME280;9469;51.114;13.914;2024-01-07T22:08:13;99503.75;;;-3.29;92.94
18678;BME280;9469;51.114;13.914;2024-01-07T22:13:18;99498.59;;;-3.22;92.55
18678;BME280;9469;51.114;13.914;2024-01-07T22:18:23;99504.03;;;-3.17;93.08
18678;BME280;9469;51.114;13.914;2024-01-07T22:23:31;99496.50;;;-3.40;93.35
18678;BME280;9469;51.114;13.914;2024-01-07T22:28:36;99509.72;;;-3.35;93.15
18678;BME280;9469;51.114;13.914;2024-01-07T22:33:42;99520.34;;;-3.30;93.71
18678;BME280;9469;51.114;13.914;2024-01-07T22:38:51;99514.09;;;-3.08;93.38
18678;BME280;9469;51.114;13.914;2024-01-07T22:43:56;99515.00;;;-2.81;93.97
18678;BME280;9469;51.114;13.914;2024-01-07T22:49:02;99518.78;;;-2.90;93.19
18678;BME280;9469;51.114;13.914;2024-01-07T22:54:09;99518.13;;;-2.99;93.10
18678;BME280;9469;51.114;13.914;2024-01-07T22:59:17;99519.22;;;-3.14;92.86
18678;BME280;9469;51.114;13.914;2024-01-07T23:04:23;99526.56;;;-2.97;93.16
18678;BME280;9469;51.114;13.914;2024-01-07T23:09:32;99525.56;;;-2.89;93.30
18678;BME280;9469;51.114;13.914;2024-01-07T23:14:37;99522.78;;;-2.87;92.56
18678;BME280;9469;51.114;13.914;2024-01-07T23:19:42;99515.59;;;-2.79;92.45
18678;BME280;9469;51.114;13.914;2024-01-07T23:24:50;99521.28;;;-2.62;92.46
18678;BME280;9469;51.114;13.914;2024-01-07T23:29:55;99525.66;;;-2.76;92.16
18678;BME280;9469;51.114;13.914;2024-01-07T23:35:03;99531.06;;;-2.71;91.80
18678;BME280;9469;51.114;13.914;2024-01-07T23:40:11;99540.47;;;-2.76;91.77
18678;BME280;9469;51.114;13.914;2024-01-07T23:45:16;99538.50;;;-3.09;91.52
18678;BME280;9469;51.114;13.914;2024-01-07T23:50:21;99537.41;;;-2.86;90.69
18678;BME280;9469;51.114;13.914;2024-01-07T23:55:29;99534.22;;;-2.82;91.32
